Time;durP1;ratioP1;P1;durP2;ratioP2;P2;SDS_P1;SDS_P2;PMS_P1;PMS_P2;Temp;Humidity;BMP_temperature;BMP_pressure;BME280_temperature;BME280_humidity;BME280_pressure;Samples;Min_cycle;Max_cycle;Signal;HPM_P1;HPM_P2
2021/05/22 00:00:18;;;;;;;2.52;0.90;;;;;;;15.50;54.03;99502.38;1684176;83;25521;-80
2021/05/22 00:02:44;;;;;;;4.05;1.52;;;;;;;15.50;54.10;99509.47;1684554;83;25697;-86
2021/05/22 00:05:11;;;;;;;5.10;1.10;;;;;;;15.47;54.61;99511.23;1683339;83;25720;-85
2021/05/22 00:07:37;;;;;;;4.35;1.27;;;;;;;15.40;54.61;99509.95;1682713;83;25507;-86
2021/05/22 00:10:09;;;;;;;3.05;1.07;;;;;;;15.40;54.74;99499.42;1682986;83;32197;-85
2021/05/22 00:12:34;;;;;;;2.70;1.10;;;;;;;15.40;54.74;99499.42;1681050;83;25607;-86
2021/05/22 00:15:01;;;;;;;3.35;1.22;;;;;;;15.37;54.94;99493.28;1683435;83;32819;-80
2021/05/22 00:17:27;;;;;;;2.75;1.30;;;;;;;15.35;55.12;99492.69;1682638;83;25544;-80
2021/05/22 00:19:53;;;;;;;2.20;1.20;;;;;;;15.33;55.21;99486.82;1681490;83;34705;-86
2021/05/22 00:22:19;;;;;;;4.90;1.27;;;;;;;15.31;55.34;99488.38;1685683;83;32537;-80
2021/05/22 00:24:44;;;;;;;3.02;0.98;;;;;;;15.32;55.51;99481.27;1682628;83;26431;-79
2021/05/22 00:27:10;;;;;;;2.85;1.52;;;;;;;15.32;55.51;99481.27;1683474;83;32819;-79
2021/05/22 00:29:36;;;;;;;3.75;1.50;;;;;;;15.32;55.57;99485.23;1685438;83;31198;-79
2021/05/22 00:32:02;;;;;;;4.92;1.55;;;;;;;15.34;55.69;99484.50;1684391;83;34739;-80
2021/05/22 00:34:28;;;;;;;5.10;1.00;;;;;;;15.34;55.86;99487.66;1684240;83;25197;-79
2021/05/22 00:36:54;;;;;;;3.30;1.10;;;;;;;15.31;55.90;99502.06;1684534;83;26029;-85
2021/05/22 00:39:19;;;;;;;2.85;1.20;;;;;;;15.26;56.12;99505.84;1682732;83;33326;-79
2021/05/22 00:41:45;;;;;;;3.10;1.20;;;;;;;15.19;56.34;99508.52;1683849;83;31176;-79
2021/05/22 00:44:11;;;;;;;2.20;0.90;;;;;;;15.12;56.49;99506.99;1684203;83;34753;-85
2021/05/22 00:46:37;;;;;;;3.90;0.90;;;;;;;15.03;56.72;99503.80;1683239;83;32407;-84
2021/05/22 00:49:03;;;;;;;1.87;0.85;;;;;;;15.03;57.16;99506.43;1683417;83;25338;-85
2021/05/22 00:51:29;;;;;;;2.37;0.90;;;;;;;14.96;57.01;99499.92;1682854;83;25600;-85
2021/05/22 00:53:55;;;;;;;0.98;0.70;;;;;;;14.89;57.26;99507.05;1685526;83;31215;-85
2021/05/22 00:56:20;;;;;;;2.30;1.02;;;;;;;14.87;57.70;99515.69;1657248;84;34681;-85
2021/05/22 00:58:46;;;;;;;2.35;1.00;;;;;;;14.84;57.52;99510.83;1633054;84;32646;-85
2021/05/22 01:01:12;;;;;;;1.90;0.90;;;;;;;14.83;57.50;99509.23;1683577;83;26581;-85
2021/05/22 01:03:45;;;;;;;2.55;0.90;;;;;;;14.83;57.69;99505.28;1681646;83;32787;-86
2021/05/22 01:06:25;;;;;;;1.65;0.90;;;;;;;14.80;57.69;99517.55;1683206;83;25506;-86
2021/05/22 01:08:56;;;;;;;1.20;0.95;;;;;;;14.79;57.78;99519.38;1683507;83;25436;-85
2021/05/22 01:11:34;;;;;;;1.52;0.70;;;;;;;14.79;57.96;99520.70;1684090;83;26587;-85
2021/05/22 01:14:08;;;;;;;1.62;0.70;;;;;;;14.73;58.10;99529.45;1651760;83;26464;-85
2021/05/22 01:16:35;;;;;;;4.95;1.00;;;;;;;14.69;58.27;99515.09;1682762;83;25675;-85
2021/05/22 01:19:03;;;;;;;2.10;1.00;;;;;;;14.69;58.53;99514.30;1681086;83;25586;-85
2021/05/22 01:21:29;;;;;;;3.00;0.90;;;;;;;14.62;58.67;99509.05;1682554;83;25586;-85
2021/05/22 01:24:05;;;;;;;1.85;1.05;;;;;;;14.59;58.71;99514.23;1682557;83;32309;-85
2021/05/22 01:26:32;;;;;;;3.65;1.10;;;;;;;14.60;58.79;99522.44;1681944;83;25516;-84
2021/05/22 01:29:00;;;;;;;1.15;0.68;;;;;;;14.57;58.98;99517.60;1684136;83;25199;-84
2021/05/22 01:31:26;;;;;;;2.00;1.00;;;;;;;14.57;59.14;99512.34;1681511;83;25616;-85
2021/05/22 01:33:52;;;;;;;1.72;0.95;;;;;;;14.55;59.26;99509.62;1685917;83;25585;-79
2021/05/22 01:36:18;;;;;;;2.58;0.80;;;;;;;14.52;59.32;99508.71;1682576;83;25558;-79
2021/05/22 01:38:44;;;;;;;6.20;1.00;;;;;;;14.53;59.44;99507.19;1684375;83;26487;-79
2021/05/22 01:41:10;;;;;;;3.37;0.98;;;;;;;14.54;59.54;99494.36;1683746;83;32730;-79
2021/05/22 01:43:40;;;;;;;1.05;0.90;;;;;;;14.55;59.72;99498.59;1683372;83;31033;-79
2021/05/22 01:46:07;;;;;;;1.82;1.10;;;;;;;14.53;59.82;99495.88;1682628;83;25849;-80
2021/05/22 01:48:33;;;;;;;1.60;0.90;;;;;;;14.51;59.86;99497.87;1684680;83;25211;-80
2021/05/22 01:51:04;;;;;;;2.45;0.95;;;;;;;14.47;60.22;99508.02;1685621;83;25594;-80
2021/05/22 01:53:31;;;;;;;2.45;1.00;;;;;;;14.36;60.38;99514.75;1684525;83;25589;-80
2021/05/22 01:55:59;;;;;;;3.58;1.47;;;;;;;14.31;60.66;99511.94;1683084;83;25742;-79
2021/05/22 01:58:25;;;;;;;4.47;1.02;;;;;;;14.30;60.87;99516.11;1680864;83;25696;-85
2021/05/22 02:00:51;;;;;;;4.28;1.20;;;;;;;14.27;61.05;99512.08;1668482;83;25713;-86
2021/05/22 02:03:30;;;;;;;5.12;1.42;;;;;;;14.27;61.04;99511.25;1682635;83;25508;-86
2021/05/22 02:05:58;;;;;;;2.33;1.05;;;;;;;14.29;61.19;99523.17;1682143;83;25643;-86
2021/05/22 02:08:25;;;;;;;5.20;1.30;;;;;;;14.29;61.31;99517.91;1679626;83;25636;-86
2021/05/22 02:10:51;;;;;;;7.15;1.30;;;;;;;14.24;61.42;99516.45;1683451;83;25163;-86
2021/05/22 02:13:18;;;;;;;2.47;1.22;;;;;;;14.19;61.63;99521.00;1683411;83;26646;-80
2021/05/22 02:15:55;;;;;;;1.62;1.10;;;;;;;14.18;61.71;99518.57;1684948;83;26328;-85
2021/05/22 02:18:23;;;;;;;5.47;1.42;;;;;;;14.18;61.95;99512.80;1684886;83;26012;-86
2021/05/22 02:20:53;;;;;;;2.40;1.40;;;;;;;14.20;62.03;99512.61;1683323;83;25234;-86
2021/05/22 02:23:21;;;;;;;3.37;1.20;;;;;;;14.20;62.16;99502.89;1669822;83;25726;-85
2021/05/22 02:25:47;;;;;;;4.62;1.30;;;;;;;14.18;62.19;99498.86;1684229;83;25134;-86
2021/05/22 02:28:14;;;;;;;3.35;1.40;;;;;;;14.17;62.33;99503.83;1682359;83;26178;-86
2021/05/22 02:30:43;;;;;;;3.25;1.30;;;;;;;14.08;62.43;99505.89;1667442;83;26081;-80
2021/05/22 02:33:12;;;;;;;5.53;1.37;;;;;;;14.03;62.73;99495.20;1684928;83;25575;-80
2021/05/22 02:35:40;;;;;;;4.65;1.62;;;;;;;13.98;62.96;99492.39;1683425;83;25346;-79
2021/05/22 02:38:10;;;;;;;2.62;1.50;;;;;;;13.90;63.13;99491.31;1681294;83;25476;-80
2021/05/22 02:40:38;;;;;;;6.25;1.70;;;;;;;13.85;63.45;99492.44;1685078;83;26335;-79
2021/05/22 02:43:08;;;;;;;6.28;1.40;;;;;;;13.84;63.74;99493.46;1684862;83;25550;-79
2021/05/22 02:45:38;;;;;;;2.08;1.20;;;;;;;13.79;63.95;99494.08;1684214;83;25443;-80
2021/05/22 02:48:09;;;;;;;3.10;1.27;;;;;;;13.77;64.03;99504.77;1682664;83;25569;-79
2021/05/22 02:50:35;;;;;;;2.92;1.27;;;;;;;13.73;64.14;99505.41;1682185;83;25484;-85
2021/05/22 02:53:01;;;;;;;3.12;1.42;;;;;;;13.69;64.40;99506.83;1685779;83;25531;-86
2021/05/22 02:55:29;;;;;;;7.12;1.55;;;;;;;13.69;64.65;99505.00;1686021;83;32756;-86
2021/05/22 02:57:56;;;;;;;5.85;1.57;;;;;;;13.72;64.73;99512.49;1685846;83;25583;-85
2021/05/22 03:00:23;;;;;;;5.47;1.70;;;;;;;13.72;64.92;99515.59;1685056;83;25574;-86
2021/05/22 03:02:49;;;;;;;2.80;1.70;;;;;;;13.71;64.97;99516.62;1683799;83;26343;-85
2021/05/22 03:05:16;;;;;;;3.08;1.32;;;;;;;13.68;65.08;99524.92;1684774;83;25522;-80
2021/05/22 03:07:44;;;;;;;3.92;1.60;;;;;;;13.68;65.20;99533.59;1683598;83;26395;-80
2021/05/22 03:10:11;;;;;;;9.88;1.62;;;;;;;13.74;65.33;99540.65;1681911;83;25610;-79
2021/05/22 03:12:37;;;;;;;8.83;1.70;;;;;;;13.77;65.31;99539.43;1683080;83;25192;-80
2021/05/22 03:15:09;;;;;;;2.98;1.52;;;;;;;13.78;65.43;99539.75;1683113;83;25891;-80
2021/05/22 03:17:36;;;;;;;3.42;1.50;;;;;;;13.77;65.43;99538.92;1682554;83;26354;-80
2021/05/22 03:20:05;;;;;;;2.67;1.42;;;;;;;13.82;65.56;99541.45;1680596;83;25627;-80
2021/05/22 03:22:31;;;;;;;4.37;1.75;;;;;;;13.81;65.57;99539.84;1682235;83;25661;-80
2021/05/22 03:24:57;;;;;;;7.37;1.87;;;;;;;13.80;65.71;99545.58;1681827;83;25594;-80
2021/05/22 03:27:23;;;;;;;5.42;1.80;;;;;;;13.80;65.76;99539.02;1685620;83;32314;-80
2021/05/22 03:29:49;;;;;;;5.78;2.02;;;;;;;13.80;65.83;99539.53;1686559;83;25685;-86
2021/05/22 03:32:15;;;;;;;6.30;1.32;;;;;;;13.78;65.94;99539.75;1684254;83;32776;-80
2021/05/22 03:34:41;;;;;;;3.52;1.85;;;;;;;13.75;66.08;99542.28;1683945;83;31153;-80
2021/05/22 03:37:07;;;;;;;6.53;1.87;;;;;;;13.70;66.20;99545.22;1685842;83;35021;-80
2021/05/22 03:39:33;;;;;;;4.55;1.40;;;;;;;13.70;66.32;99544.71;1683164;83;32333;-80
2021/05/22 03:41:59;;;;;;;3.40;1.50;;;;;;;13.72;66.42;99545.80;1683454;83;25715;-86
2021/05/22 03:44:25;;;;;;;3.55;1.45;;;;;;;13.76;66.51;99538.63;1670036;83;25620;-85
2021/05/22 03:46:51;;;;;;;4.97;1.70;;;;;;;13.78;66.50;99534.50;1660002;83;30909;-85
2021/05/22 03:49:17;;;;;;;2.55;1.70;;;;;;;13.77;66.50;99534.98;1685375;83;25361;-85
2021/05/22 03:51:44;;;;;;;3.08;1.30;;;;;;;13.79;66.54;99537.92;1682817;83;32210;-85
2021/05/22 03:54:09;;;;;;;7.25;1.87;;;;;;;13.82;66.44;99542.77;1685766;83;25660;-85
2021/05/22 03:56:35;;;;;;;4.80;1.62;;;;;;;13.85;66.38;99547.09;1683367;83;32747;-85
2021/05/22 03:59:01;;;;;;;3.75;1.75;;;;;;;13.86;66.43;99544.78;1683786;83;31151;-85
2021/05/22 04:01:27;;;;;;;5.87;1.80;;;;;;;13.87;66.31;99554.77;1682830;83;34620;-85
2021/05/22 04:03:53;;;;;;;4.17;1.52;;;;;;;13.87;66.20;99554.77;1685207;83;25575;-85
2021/05/22 04:06:19;;;;;;;5.35;1.87;;;;;;;13.87;66.20;99545.58;1685730;83;25745;-85
2021/05/22 04:08:45;;;;;;;4.25;1.50;;;;;;;13.92;66.32;99533.95;1686360;83;33294;-79
2021/05/22 04:11:10;;;;;;;3.30;1.45;;;;;;;13.95;66.26;99535.65;1681593;83;30763;-79
2021/05/22 04:13:36;;;;;;;2.95;1.40;;;;;;;13.97;66.13;99542.82;1685663;83;34718;-79
2021/05/22 04:16:02;;;;;;;3.50;1.60;;;;;;;13.99;66.16;99537.34;1683838;83;32262;-79
2021/05/22 04:18:28;;;;;;;4.72;1.52;;;;;;;14.00;66.23;99540.29;1683799;83;25620;-79
2021/05/22 04:20:54;;;;;;;3.58;1.77;;;;;;;14.03;66.28;99540.38;1683461;83;33347;-79
2021/05/22 04:23:20;;;;;;;2.35;1.00;;;;;;;14.08;66.35;99536.12;1684037;83;30945;-80
2021/05/22 04:25:45;;;;;;;2.37;1.40;;;;;;;14.11;66.29;99540.95;1681877;83;34691;-79
2021/05/22 04:28:11;;;;;;;2.22;1.17;;;;;;;14.14;66.28;99540.53;1682464;83;32350;-79
2021/05/22 04:30:37;;;;;;;3.22;1.35;;;;;;;14.18;66.33;99533.03;1682870;83;25752;-79
2021/05/22 04:33:03;;;;;;;4.67;1.35;;;;;;;14.18;66.20;99538.28;1682548;83;32989;-79
2021/05/22 04:35:29;;;;;;;4.12;1.27;;;;;;;14.24;66.09;99544.53;1682832;83;25661;-79
2021/05/22 04:37:55;;;;;;;3.98;1.42;;;;;;;14.23;66.08;99539.78;1683666;83;25600;-79
2021/05/22 04:40:21;;;;;;;5.95;1.40;;;;;;;14.26;66.21;99550.39;1683522;83;32980;-79
2021/05/22 04:42:47;;;;;;;2.30;1.20;;;;;;;14.29;66.15;99550.77;1684791;83;25767;-85
2021/05/22 04:45:14;;;;;;;2.80;1.42;;;;;;;14.28;66.15;99545.22;1658845;83;32797;-85
2021/05/22 04:47:40;;;;;;;2.25;1.27;;;;;;;14.30;66.31;99544.52;1682942;83;25801;-85
2021/05/22 04:50:08;;;;;;;3.72;1.20;;;;;;;14.30;66.23;99545.83;1686490;83;35182;-79
2021/05/22 04:52:34;;;;;;;3.83;1.65;;;;;;;14.28;66.18;99543.91;1684161;83;25991;-85
2021/05/22 04:55:00;;;;;;;1.80;1.32;;;;;;;14.28;66.35;99541.28;1684648;83;26107;-86
2021/05/22 04:57:26;;;;;;;2.95;1.40;;;;;;;14.31;66.33;99538.23;1682954;83;33355;-85
2021/05/22 04:59:52;;;;;;;2.02;1.30;;;;;;;14.33;66.44;99539.34;1682604;83;31183;-85
2021/05/22 05:02:17;;;;;;;3.77;1.42;;;;;;;14.36;66.48;99539.72;1684375;83;35203;-85
2021/05/22 05:04:43;;;;;;;3.12;1.17;;;;;;;14.38;66.40;99550.05;1683584;83;32668;-84
2021/05/22 05:07:09;;;;;;;1.55;0.90;;;;;;;14.40;66.35;99570.34;1685089;83;26167;-85
2021/05/22 05:09:36;;;;;;;4.03;1.80;;;;;;;14.42;66.41;99562.54;1682542;83;26385;-85
2021/05/22 05:12:04;;;;;;;3.77;1.02;;;;;;;14.45;66.56;99571.84;1688373;83;25531;-85
2021/05/22 05:14:31;;;;;;;3.00;1.45;;;;;;;14.50;66.49;99568.59;1686186;83;25184;-85
2021/05/22 05:16:57;;;;;;;2.62;1.05;;;;;;;14.56;66.60;99565.14;1685695;83;25653;-86
2021/05/22 05:19:27;;;;;;;4.45;1.17;;;;;;;14.57;66.42;99561.00;1674516;83;25631;-85
2021/05/22 05:21:51;;;;;;;2.20;1.12;;;;;;;14.61;66.25;99552.16;1687423;83;25550;-84
2021/05/22 05:24:17;;;;;;;3.10;1.25;;;;;;;14.64;66.20;99539.39;1688546;83;31555;-84
2021/05/22 05:26:43;;;;;;;8.00;1.02;;;;;;;14.68;66.24;99538.48;1685358;83;25552;-85
2021/05/22 05:29:08;;;;;;;3.30;1.02;;;;;;;14.73;66.06;99532.56;1685128;83;32748;-85
2021/05/22 05:31:34;;;;;;;2.40;1.40;;;;;;;14.79;66.10;99533.05;1684367;83;26000;-85
2021/05/22 05:34:00;;;;;;;2.60;1.00;;;;;;;14.84;66.11;99528.76;1687496;83;32737;-84
2021/05/22 05:36:26;;;;;;;3.20;1.30;;;;;;;14.88;66.04;99529.13;1684374;83;31259;-80
2021/05/22 05:38:52;;;;;;;1.35;0.90;;;;;;;14.92;65.72;99542.14;1687325;83;34715;-80
2021/05/22 05:41:19;;;;;;;1.87;1.20;;;;;;;14.96;65.81;99541.22;1685916;83;25644;-79
2021/05/22 05:43:44;;;;;;;6.12;1.80;;;;;;;14.97;65.63;99538.88;1686003;83;25879;-80
2021/05/22 05:46:10;;;;;;;2.17;1.00;;;;;;;15.01;65.51;99528.23;1694835;83;32801;-79
2021/05/22 05:48:36;;;;;;;2.58;1.12;;;;;;;15.03;65.51;99529.63;1682998;83;31734;-80
2021/05/22 05:51:02;;;;;;;7.95;1.50;;;;;;;14.93;65.10;99518.77;1688976;83;34803;-84
2021/05/22 05:53:28;;;;;;;5.62;1.57;;;;;;;14.93;65.10;99518.77;1688080;83;26383;-84
2021/05/22 05:55:53;;;;;;;4.03;1.05;;;;;;;15.03;65.36;99540.16;1661000;83;25733;-79
2021/05/22 05:58:19;;;;;;;1.72;1.10;;;;;;;15.08;65.41;99544.76;1686941;83;32792;-79
2021/05/22 06:00:45;;;;;;;2.75;1.27;;;;;;;15.11;65.32;99552.22;1684561;83;25656;-79
2021/05/22 06:03:11;;;;;;;2.45;1.17;;;;;;;15.16;65.18;99546.33;1684433;83;35128;-79
2021/05/22 06:05:37;;;;;;;2.72;1.20;;;;;;;15.19;65.12;99553.79;1689704;83;32768;-84
2021/05/22 06:08:03;;;;;;;2.77;1.05;;;;;;;15.24;64.78;99546.86;1684262;83;27279;-80
2021/05/22 06:10:29;;;;;;;3.15;1.00;;;;;;;15.30;64.76;99543.38;1684787;83;25500;-79
2021/05/22 06:12:57;;;;;;;2.80;1.15;;;;;;;15.34;64.66;99540.31;1684519;83;31243;-79
2021/05/22 06:15:29;;;;;;;4.37;1.62;;;;;;;15.40;64.35;99547.34;1684470;83;25187;-79
2021/05/22 06:17:52;;;;;;;2.90;1.37;;;;;;;15.39;64.52;99539.95;1682668;83;25471;-85
2021/05/22 06:20:19;;;;;;;5.65;1.20;;;;;;;15.42;64.75;99536.09;1683554;83;25603;-85
2021/05/22 06:22:46;;;;;;;4.30;1.30;;;;;;;15.46;64.80;99542.00;1688162;83;25578;-84
2021/05/22 06:25:13;;;;;;;1.67;1.10;;;;;;;15.48;64.59;99543.91;1685845;83;25581;-85
2021/05/22 06:27:39;;;;;;;3.75;1.40;;;;;;;15.50;64.75;99547.14;1689725;83;25135;-79
2021/05/22 06:30:08;;;;;;;4.95;1.02;;;;;;;15.52;64.67;99537.69;1684178;83;25569;-84
2021/05/22 06:32:35;;;;;;;1.32;1.00;;;;;;;15.53;64.79;99539.32;1685454;83;26214;-84
2021/05/22 06:35:03;;;;;;;2.10;1.12;;;;;;;15.58;64.84;99539.97;1682443;83;25406;-85
2021/05/22 06:37:29;;;;;;;1.87;1.20;;;;;;;15.69;64.53;99556.42;1685858;83;25582;-85
2021/05/22 06:39:55;;;;;;;4.28;1.60;;;;;;;15.80;64.55;99567.56;1682647;83;34692;-85
2021/05/22 06:42:21;;;;;;;4.17;1.12;;;;;;;15.69;64.61;99526.93;1686893;83;32331;-85
2021/05/22 06:44:58;;;;;;;2.17;1.10;;;;;;;15.99;64.26;99563.09;1684972;83;25617;-85
2021/05/22 06:47:21;;;;;;;3.05;1.40;;;;;;;16.02;64.03;99557.38;1684887;83;25243;-85
2021/05/22 06:49:47;;;;;;;3.77;1.15;;;;;;;16.05;63.91;99554.30;1684422;83;31361;-80
2021/05/22 06:52:13;;;;;;;2.80;1.10;;;;;;;16.01;63.30;99537.30;1686196;83;34716;-80
2021/05/22 06:54:39;;;;;;;2.08;1.07;;;;;;;16.01;63.30;99537.30;1685343;83;32261;-80
2021/05/22 06:57:05;;;;;;;3.72;1.35;;;;;;;15.96;63.05;99545.09;1686678;83;26457;-80
2021/05/22 06:59:31;;;;;;;4.55;1.27;;;;;;;16.00;63.22;99554.16;1686181;83;25584;-80
2021/05/22 07:01:57;;;;;;;2.15;1.30;;;;;;;16.04;62.88;99557.98;1680927;83;31647;-81
2021/05/22 07:04:23;;;;;;;3.60;1.62;;;;;;;16.05;63.00;99570.12;1680621;83;25496;-80
2021/05/22 07:06:49;;;;;;;3.72;1.30;;;;;;;16.05;62.91;99555.62;1682924;83;33089;-80
2021/05/22 07:09:14;;;;;;;6.62;1.20;;;;;;;15.92;63.23;99524.14;1684265;83;26464;-81
2021/05/22 07:11:41;;;;;;;6.83;1.35;;;;;;;16.08;63.13;99549.91;1682244;83;33193;-80
2021/05/22 07:14:08;;;;;;;3.98;1.30;;;;;;;16.09;62.95;99551.50;1682604;83;26468;-81
2021/05/22 07:16:34;;;;;;;3.52;1.27;;;;;;;16.10;63.08;99554.45;1682461;83;26055;-81
2021/05/22 07:19:00;;;;;;;3.02;1.10;;;;;;;16.14;62.90;99556.12;1680996;83;26330;-81
2021/05/22 07:21:27;;;;;;;2.90;1.30;;;;;;;16.15;62.69;99561.67;1682789;83;25633;-80
2021/05/22 07:23:53;;;;;;;1.72;0.95;;;;;;;16.13;62.83;99562.44;1681410;83;25269;-80
2021/05/22 07:26:18;;;;;;;4.60;1.30;;;;;;;16.13;62.74;99552.69;1681306;83;31343;-81
2021/05/22 07:28:44;;;;;;;4.90;1.70;;;;;;;16.14;62.62;99554.80;1682703;83;34842;-81
2021/05/22 07:31:10;;;;;;;4.62;1.20;;;;;;;16.07;62.86;99530.34;1684289;83;32882;-81
2021/05/22 07:33:40;;;;;;;4.08;1.00;;;;;;;16.19;62.97;99545.72;1684803;83;25926;-81
2021/05/22 07:36:04;;;;;;;4.00;1.40;;;;;;;16.21;62.96;99546.31;1682396;83;25546;-86
2021/05/22 07:38:30;;;;;;;2.72;1.30;;;;;;;16.18;62.80;99545.44;1681478;83;25316;-81
2021/05/22 07:40:56;;;;;;;2.52;1.30;;;;;;;16.20;62.74;99544.20;1684755;83;35338;-81
2021/05/22 07:43:22;;;;;;;4.33;1.00;;;;;;;16.20;62.84;99541.56;1684482;83;25705;-81
2021/05/22 07:45:48;;;;;;;6.55;1.45;;;;;;;16.24;62.83;99543.23;1683458;83;26018;-81
2021/05/22 07:48:15;;;;;;;2.27;1.17;;;;;;;16.29;62.83;99542.05;1681883;83;32617;-85
2021/05/22 07:50:41;;;;;;;3.33;1.60;;;;;;;16.32;62.73;99531.57;1680396;83;25707;-86
2021/05/22 07:53:07;;;;;;;2.12;1.07;;;;;;;16.35;62.86;99538.52;1681636;83;26534;-85
2021/05/22 07:55:33;;;;;;;4.25;1.42;;;;;;;16.38;62.92;99536.75;1684256;83;32780;-80
2021/05/22 07:57:59;;;;;;;2.12;1.00;;;;;;;16.41;63.00;99538.14;1684329;83;26962;-81
2021/05/22 08:00:25;;;;;;;1.17;0.72;;;;;;;16.45;62.74;99541.95;1684800;83;32799;-80
2021/05/22 08:02:51;;;;;;;6.12;1.55;;;;;;;16.48;62.63;99540.67;1683594;83;31223;-86
2021/05/22 08:05:17;;;;;;;2.35;1.15;;;;;;;16.53;62.81;99549.55;1680935;83;25824;-82
2021/05/22 08:07:43;;;;;;;2.42;1.37;;;;;;;16.57;62.86;99550.70;1684148;83;32731;-80
2021/05/22 08:10:10;;;;;;;4.00;1.30;;;;;;;16.60;62.64;99548.93;1687665;83;25570;-81
2021/05/22 08:12:36;;;;;;;3.00;1.00;;;;;;;16.62;62.16;99550.03;1686141;83;25653;-80
2021/05/22 08:15:05;;;;;;;5.45;1.32;;;;;;;16.56;61.92;99550.42;1684233;83;25371;-80
2021/05/22 08:17:31;;;;;;;1.80;0.93;;;;;;;16.55;62.26;99545.36;1683731;83;25532;-80
2021/05/22 08:19:56;;;;;;;3.92;1.42;;;;;;;16.59;62.12;99547.85;1681843;84;32340;-78
2021/05/22 08:22:23;;;;;;;4.20;1.15;;;;;;;16.55;61.69;99540.88;1681496;83;25641;-75
2021/05/22 08:24:49;;;;;;;2.65;1.22;;;;;;;16.52;61.97;99556.36;1683102;83;25560;-77
2021/05/22 08:27:20;;;;;;;1.80;1.05;;;;;;;16.51;62.21;99552.13;1682144;83;26453;-79
2021/05/22 08:29:45;;;;;;;2.12;1.10;;;;;;;16.50;62.32;99551.29;1681683;83;25827;-83
2021/05/22 08:32:11;;;;;;;2.27;1.25;;;;;;;16.49;62.67;99558.92;1681169;83;32343;-83
2021/05/22 08:34:41;;;;;;;2.98;1.15;;;;;;;16.48;62.80;99563.92;1681825;83;25959;-84
2021/05/22 08:37:08;;;;;;;6.55;1.40;;;;;;;16.49;63.26;99552.33;1660879;83;25649;-75
2021/05/22 08:39:35;;;;;;;4.53;1.55;;;;;;;16.43;63.42;99552.72;1683246;83;25659;-75
2021/05/22 08:42:06;;;;;;;2.42;2.00;;;;;;;16.43;63.97;99545.32;1682395;83;25650;-75
2021/05/22 08:44:32;;;;;;;1.72;1.10;;;;;;;16.46;64.14;99554.10;1683324;83;25646;-77
2021/05/22 08:46:58;;;;;;;2.20;1.30;;;;;;;16.41;64.80;99556.60;1658081;84;26223;-80
2021/05/22 08:49:24;;;;;;;2.45;1.37;;;;;;;16.37;65.06;99548.86;1684712;83;32845;-77
2021/05/22 08:51:50;;;;;;;3.40;1.40;;;;;;;16.34;65.09;99550.59;1684336;83;25607;-75
2021/05/22 08:54:18;;;;;;;4.37;1.42;;;;;;;16.30;65.62;99556.03;1682408;83;34719;-75
2021/05/22 08:56:44;;;;;;;1.95;0.98;;;;;;;16.23;66.40;99552.14;1682879;83;25637;-80
2021/05/22 08:59:10;;;;;;;3.65;1.32;;;;;;;16.19;66.86;99558.39;1682609;83;26137;-77
2021/05/22 09:01:37;;;;;;;3.62;1.32;;;;;;;16.16;66.78;99563.30;1681356;83;25822;-77
2021/05/22 09:04:05;;;;;;;5.35;2.12;;;;;;;16.19;67.19;99559.70;1684926;83;25673;-77
2021/05/22 09:06:33;;;;;;;2.98;1.70;;;;;;;16.25;67.65;99554.58;1682269;83;26496;-77
2021/05/22 09:09:04;;;;;;;3.22;1.60;;;;;;;16.21;67.85;99564.77;1681486;83;25612;-76
2021/05/22 09:11:50;;;;;;;3.60;1.85;;;;;;;16.07;67.78;99560.17;1681755;83;25628;-76
2021/05/22 09:14:48;;;;;;;5.83;1.72;;;;;;;16.03;68.14;99555.03;1682458;83;26388;-77
2021/05/22 09:17:15;;;;;;;3.72;1.52;;;;;;;15.95;68.46;99557.95;1683555;83;25718;-79
2021/05/22 09:19:42;;;;;;;4.42;2.00;;;;;;;15.86;68.87;99561.92;1682927;83;25148;-77
2021/05/22 09:22:21;;;;;;;2.95;1.90;;;;;;;15.82;69.38;99567.32;1683443;83;25702;-77
2021/05/22 09:25:03;;;;;;;3.50;1.90;;;;;;;15.75;69.75;99560.81;1682865;83;25725;-78
2021/05/22 09:27:41;;;;;;;5.25;1.70;;;;;;;15.65;70.06;99569.18;1682262;83;25622;-77
2021/05/22 09:30:14;;;;;;;2.52;1.30;;;;;;;15.63;70.29;99567.78;1684913;83;26216;-77
2021/05/22 09:32:41;;;;;;;1.92;1.25;;;;;;;15.59;70.46;99560.83;1683125;83;26451;-78
2021/05/22 09:35:09;;;;;;;2.72;1.42;;;;;;;15.56;70.58;99561.79;1685342;83;25527;-78
2021/05/22 09:38:01;;;;;;;2.45;1.47;;;;;;;15.50;70.54;99563.47;1640749;83;27431;-79
2021/05/22 09:40:38;;;;;;;3.55;1.67;;;;;;;15.49;70.83;99567.91;1686416;83;25471;-78
2021/05/22 09:43:08;;;;;;;4.37;1.67;;;;;;;15.43;70.95;99566.14;1686063;83;25407;-80
2021/05/22 09:45:43;;;;;;;6.13;1.60;;;;;;;15.41;71.18;99566.86;1687825;83;25406;-79
2021/05/22 09:48:20;;;;;;;3.45;1.60;;;;;;;15.38;71.44;99571.77;1686474;83;25505;-78
2021/05/22 09:50:52;;;;;;;4.95;1.77;;;;;;;15.37;71.44;99571.48;1686650;83;26241;-78
2021/05/22 09:53:38;;;;;;;2.90;1.72;;;;;;;15.39;71.83;99574.20;1656125;83;25592;-79
2021/05/22 09:56:26;;;;;;;4.78;2.30;;;;;;;15.41;71.82;99564.23;1685193;83;25764;-77
2021/05/22 09:58:57;;;;;;;6.80;2.15;;;;;;;15.36;71.69;99575.11;1686061;83;26340;-78
2021/05/22 10:01:30;;;;;;;13.03;10.58;;;;;;;15.21;71.99;99568.35;1684997;83;26603;-78
2021/05/22 10:03:55;;;;;;;15.68;12.55;;;;;;;15.18;72.48;99568.78;1686507;83;28008;-78
2021/05/22 10:06:22;;;;;;;60.00;53.60;;;;;;;15.09;72.05;99565.61;1685318;83;25758;-78
2021/05/22 10:08:49;;;;;;;18.62;12.90;;;;;;;15.04;72.42;99564.65;1685902;83;25801;-77
2021/05/22 10:11:15;;;;;;;8.18;3.40;;;;;;;15.02;72.71;99567.48;1686966;83;25482;-78
2021/05/22 10:13:43;;;;;;;4.05;2.20;;;;;;;15.02;72.78;99560.09;1687757;83;25663;-77
2021/05/22 10:16:09;;;;;;;7.78;2.50;;;;;;;15.00;72.93;99554.23;1685526;83;25517;-77
2021/05/22 10:18:36;;;;;;;5.28;3.62;;;;;;;15.01;73.23;99551.92;1682592;83;25511;-77
2021/05/22 10:21:04;;;;;;;8.20;3.15;;;;;;;15.00;73.19;99553.72;1687936;83;25686;-77
2021/05/22 10:23:30;;;;;;;7.25;4.87;;;;;;;14.93;73.29;99550.86;1686152;83;26504;-79
2021/05/22 10:25:58;;;;;;;4.30;1.85;;;;;;;14.87;73.65;99548.58;1654923;84;25571;-77
2021/05/22 10:28:25;;;;;;;5.00;2.33;;;;;;;14.86;73.85;99549.58;1633559;85;25598;-77
2021/05/22 10:30:51;;;;;;;4.20;2.55;;;;;;;14.70;74.04;99538.25;1632101;85;25650;-77
2021/05/22 10:33:17;;;;;;;4.85;2.20;;;;;;;14.72;74.31;99547.55;1631386;85;31179;-77
2021/05/22 10:35:48;;;;;;;3.40;1.90;;;;;;;14.68;74.71;99541.11;1625148;86;25514;-77
2021/05/22 10:38:40;;;;;;;8.08;3.72;;;;;;;14.64;74.68;99538.59;1636360;85;25251;-79
2021/05/22 10:41:13;;;;;;;7.03;2.30;;;;;;;14.66;75.07;99536.56;1638088;85;26106;-80
2021/05/22 10:43:54;;;;;;;5.40;2.37;;;;;;;14.64;75.22;99533.33;1637761;85;25532;-79
2021/05/22 10:46:21;;;;;;;5.10;2.27;;;;;;;14.67;75.43;99528.95;1638284;85;25649;-77
2021/05/22 10:49:02;;;;;;;4.20;2.00;;;;;;;14.73;75.64;99529.45;1639340;85;25532;-79
2021/05/22 10:51:35;;;;;;;5.97;2.90;;;;;;;14.72;75.65;99525.19;1654585;84;25533;-78
2021/05/22 10:54:06;;;;;;;8.10;4.25;;;;;;;14.75;76.22;99522.64;1652463;85;25786;-77
2021/05/22 10:56:33;;;;;;;6.97;3.75;;;;;;;14.78;76.73;99520.89;1651665;85;25758;-78
2021/05/22 10:59:09;;;;;;;5.35;2.98;;;;;;;14.81;76.67;99514.72;1653153;85;25790;-78
2021/05/22 11:01:35;;;;;;;10.25;4.28;;;;;;;14.81;76.68;99512.09;1665249;84;25593;-77
2021/05/22 11:04:15;;;;;;;12.25;7.70;;;;;;;14.82;77.08;99512.89;1641807;84;25666;-79
2021/05/22 11:06:58;;;;;;;8.30;5.65;;;;;;;14.85;77.08;99509.83;1649826;85;25907;-78
2021/05/22 11:09:36;;;;;;;6.33;4.00;;;;;;;14.81;77.18;99505.52;1648835;85;25601;-79
2021/05/22 11:12:25;;;;;;;7.80;3.02;;;;;;;14.83;76.83;99504.77;1649704;85;25562;-77
2021/05/22 11:14:54;;;;;;;5.40;3.67;;;;;;;14.80;76.72;99503.08;1649785;85;25832;-77
2021/05/22 11:17:26;;;;;;;5.97;3.42;;;;;;;14.78;76.84;99496.70;1649483;85;26205;-77
2021/05/22 11:20:04;;;;;;;7.90;6.00;;;;;;;14.77;76.81;99489.05;1649661;85;25689;-78
2021/05/22 11:22:45;;;;;;;5.70;3.20;;;;;;;14.75;76.73;99491.88;1650455;85;25599;-77
2021/05/22 11:25:14;;;;;;;4.95;2.77;;;;;;;14.73;76.75;99489.98;1650041;85;26414;-76
2021/05/22 11:28:00;;;;;;;4.70;2.83;;;;;;;14.62;76.86;99483.59;1648291;85;25712;-76
2021/05/22 11:30:37;;;;;;;5.03;2.65;;;;;;;14.52;76.88;99473.20;1648645;85;25678;-77
2021/05/22 11:33:09;;;;;;;3.10;2.27;;;;;;;14.45;76.63;99470.60;1647975;85;26520;-74
2021/05/22 11:35:42;;;;;;;4.17;2.42;;;;;;;14.48;76.89;99470.69;1649413;85;25835;-75
2021/05/22 11:38:21;;;;;;;4.50;2.10;;;;;;;14.46;76.88;99468.30;1649291;85;25642;-76